sensor_id;sensor_type;location;lat;lon;timestamp;pressure;altitude;pressure_sealevel;temperature;humidity
41800;BME280;27468;47.460;19.034;2023-05-20T00:00:10;100802.88;;;15.94;92.25
41800;BME280;27468;47.460;19.034;2023-05-20T00:02:36;100808.09;;;15.97;92.00
41800;BME280;27468;47.460;19.034;2023-05-20T00:05:01;100804.44;;;15.99;91.56
41800;BME280;27468;47.460;19.034;2023-05-20T00:07:27;100748.91;;;15.65;91.54
41800;BME280;27468;47.460;19.034;2023-05-20T00:09:52;100811.78;;;15.93;92.42
41800;BME280;27468;47.460;19.034;2023-05-20T00:12:18;100815.41;;;15.90;92.58
41800;BME280;27468;47.460;19.034;2023-05-20T00:14:43;100813.66;;;15.89;92.71
41800;BME280;27468;47.460;19.034;2023-05-20T00:17:09;100805.69;;;15.89;92.33
41800;BME280;27468;47.460;19.034;2023-05-20T00:19:34;100804.75;;;15.90;92.46
41800;BME280;27468;47.460;19.034;2023-05-20T00:22:00;100748.91;;;15.65;92.09
41800;BME280;27468;47.460;19.034;2023-05-20T00:24:26;100792.50;;;15.86;92.40
41800;BME280;27468;47.460;19.034;2023-05-20T00:26:51;100777.94;;;15.71;93.11
41800;BME280;27468;47.460;19.034;2023-05-20T00:29:18;100793.63;;;15.79;92.99
41800;BME280;27468;47.460;19.034;2023-05-20T00:31:44;100731.91;;;15.44;93.12
41800;BME280;27468;47.460;19.034;2023-05-20T00:34:09;100771.16;;;15.63;93.41
41800;BME280;27468;47.460;19.034;2023-05-20T00:36:35;100787.72;;;15.71;93.03
41800;BME280;27468;47.460;19.034;2023-05-20T00:39:00;100765.22;;;15.55;92.88
41800;BME280;27468;47.460;19.034;2023-05-20T00:41:26;100762.00;;;15.45;93.05
41800;BME280;27468;47.460;19.034;2023-05-20T00:43:55;100783.97;;;15.50;92.89
41800;BME280;27468;47.460;19.034;2023-05-20T00:46:25;100757.97;;;15.33;93.15
41800;BME280;27468;47.460;19.034;2023-05-20T00:48:50;100790.94;;;15.54;93.37
41800;BME280;27468;47.460;19.034;2023-05-20T00:51:16;100741.56;;;15.20;94.30
41800;BME280;27468;47.460;19.034;2023-05-20T00:53:42;100771.25;;;15.33;94.63
41800;BME280;27468;47.460;19.034;2023-05-20T00:56:08;100759.16;;;15.25;94.65
41800;BME280;27468;47.460;19.034;2023-05-20T00:58:34;100777.38;;;15.35;94.53
41800;BME280;27468;47.460;19.034;2023-05-20T01:01:03;100795.00;;;15.38;94.76
41800;BME280;27468;47.460;19.034;2023-05-20T01:03:29;100791.53;;;15.36;94.85
41800;BME280;27468;47.460;19.034;2023-05-20T01:05:55;100743.84;;;15.05;95.27
41800;BME280;27468;47.460;19.034;2023-05-20T01:08:22;100777.84;;;15.22;95.76
41800;BME280;27468;47.460;19.034;2023-05-20T01:11:27;100790.97;;;15.26;95.52
41800;BME280;27468;47.460;19.034;2023-05-20T01:13:47;100791.00;;;15.25;95.54
41800;BME280;27468;47.460;19.034;2023-05-20T01:16:17;100788.75;;;15.12;96.05
41800;BME280;27468;47.460;19.034;2023-05-20T01:18:45;100805.34;;;15.19;95.94
41800;BME280;27468;47.460;19.034;2023-05-20T01:21:12;100761.31;;;14.85;95.88
41800;BME280;27468;47.460;19.034;2023-05-20T01:23:40;100804.72;;;15.11;96.61
41800;BME280;27468;47.460;19.034;2023-05-20T01:26:06;100791.66;;;15.05;97.05
41800;BME280;27468;47.460;19.034;2023-05-20T01:28:33;100752.72;;;14.77;97.21
41800;BME280;27468;47.460;19.034;2023-05-20T01:31:01;100788.44;;;14.95;97.23
41800;BME280;27468;47.460;19.034;2023-05-20T01:33:30;100813.81;;;15.04;97.00
41800;BME280;27468;47.460;19.034;2023-05-20T01:35:56;100811.28;;;15.01;96.86
41800;BME280;27468;47.460;19.034;2023-05-20T01:38:23;100800.94;;;14.92;97.05
41800;BME280;27468;47.460;19.034;2023-05-20T01:40:50;100782.09;;;14.71;97.48
41800;BME280;27468;47.460;19.034;2023-05-20T01:43:16;100763.84;;;14.61;96.96
41800;BME280;27468;47.460;19.034;2023-05-20T01:45:42;100783.06;;;14.69;96.73
41800;BME280;27468;47.460;19.034;2023-05-20T01:48:11;100738.81;;;14.40;97.23
41800;BME280;27468;47.460;19.034;2023-05-20T01:50:37;100776.25;;;14.60;97.29
41800;BME280;27468;47.460;19.034;2023-05-20T01:53:02;100782.28;;;14.65;96.91
41800;BME280;27468;47.460;19.034;2023-05-20T01:55:28;100830.09;;;14.93;97.74
41800;BME280;27468;47.460;19.034;2023-05-20T01:57:53;100777.09;;;14.61;98.86
41800;BME280;27468;47.460;19.034;2023-05-20T02:00:19;100771.81;;;14.61;99.08
41800;BME280;27468;47.460;19.034;2023-05-20T02:02:44;100806.34;;;14.89;98.49
41800;BME280;27468;47.460;19.034;2023-05-20T02:05:10;100800.84;;;14.95;98.06
41800;BME280;27468;47.460;19.034;2023-05-20T02:07:35;100793.06;;;14.89;98.62
41800;BME280;27468;47.460;19.034;2023-05-20T02:10:00;100821.91;;;15.01;99.24
41800;BME280;27468;47.460;19.034;2023-05-20T02:12:26;100792.28;;;14.85;99.75
41800;BME280;27468;47.460;19.034;2023-05-20T02:14:51;100813.84;;;15.02;99.73
41800;BME280;27468;47.460;19.034;2023-05-20T02:17:17;100820.13;;;15.01;100.00
41800;BME280;27468;47.460;19.034;2023-05-20T02:19:43;100764.25;;;14.76;99.52
41800;BME280;27468;47.460;19.034;2023-05-20T02:22:08;100791.28;;;14.89;99.50
41800;BME280;27468;47.460;19.034;2023-05-20T02:24:34;100815.72;;;15.00;99.17
41800;BME280;27468;47.460;19.034;2023-05-20T02:26:59;100811.16;;;15.04;98.77
41800;BME280;27468;47.460;19.034;2023-05-20T02:29:26;100776.78;;;14.71;98.69
41800;BME280;27468;47.460;19.034;2023-05-20T02:31:51;100768.22;;;14.62;98.89
41800;BME280;27468;47.460;19.034;2023-05-20T02:34:17;100828.50;;;14.88;98.87
41800;BME280;27468;47.460;19.034;2023-05-20T02:36:42;100772.81;;;14.57;98.95
41800;BME280;27468;47.460;19.034;2023-05-20T02:39:08;100823.66;;;14.72;99.12
41800;BME280;27468;47.460;19.034;2023-05-20T02:41:34;100803.66;;;14.61;99.44
41800;BME280;27468;47.460;19.034;2023-05-20T02:43:59;100815.94;;;14.63;100.00
41800;BME280;27468;47.460;19.034;2023-05-20T02:46:25;100821.16;;;14.66;100.00
41800;BME280;27468;47.460;19.034;2023-05-20T02:48:50;100828.25;;;14.66;100.00
41800;BME280;27468;47.460;19.034;2023-05-20T02:51:15;100828.22;;;14.67;100.00
41800;BME280;27468;47.460;19.034;2023-05-20T02:53:41;100812.34;;;14.66;100.00
41800;BME280;27468;47.460;19.034;2023-05-20T02:56:06;100808.25;;;14.54;100.00
41800;BME280;27468;47.460;19.034;2023-05-20T02:58:33;100808.25;;;14.54;100.00
41800;BME280;27468;47.460;19.034;2023-05-20T03:01:00;100815.34;;;14.53;100.00
41800;BME280;27468;47.460;19.034;2023-05-20T03:03:26;100815.47;;;14.49;100.00
41800;BME280;27468;47.460;19.034;2023-05-20T03:05:52;100820.63;;;14.55;100.00
41800;BME280;27468;47.460;19.034;2023-05-20T03:08:19;100804.03;;;14.47;100.00
41800;BME280;27468;47.460;19.034;2023-05-20T03:10:45;100809.22;;;14.51;100.00
41800;BME280;27468;47.460;19.034;2023-05-20T03:13:10;100820.69;;;14.52;100.00
41800;BME280;27468;47.460;19.034;2023-05-20T03:15:39;100768.44;;;14.25;100.00
41800;BME280;27468;47.460;19.034;2023-05-20T03:18:05;100828.53;;;14.57;100.00
41800;BME280;27468;47.460;19.034;2023-05-20T03:20:32;100816.34;;;14.49;100.00
41800;BME280;27468;47.460;19.034;2023-05-20T03:23:01;100823.31;;;14.53;100.00
41800;BME280;27468;47.460;19.034;2023-05-20T03:25:26;100819.78;;;14.53;100.00
41800;BME280;27468;47.460;19.034;2023-05-20T03:27:52;100789.25;;;14.38;100.00
41800;BME280;27468;47.460;19.034;2023-05-20T03:30:18;100787.44;;;14.40;100.00
41800;BME280;27468;47.460;19.034;2023-05-20T03:32:43;100823.81;;;14.66;100.00
41800;BME280;27468;47.460;19.034;2023-05-20T03:35:08;100838.78;;;14.69;100.00
41800;BME280;27468;47.460;19.034;2023-05-20T03:37:35;100789.16;;;14.43;100.00
41800;BME280;27468;47.460;19.034;2023-05-20T03:40:01;100835.03;;;14.76;100.00
41800;BME280;27468;47.460;19.034;2023-05-20T03:42:27;100814.63;;;14.78;100.00
41800;BME280;27468;47.460;19.034;2023-05-20T03:44:52;100844.00;;;15.01;100.00
41800;BME280;27468;47.460;19.034;2023-05-20T03:47:17;100786.66;;;14.66;100.00
41800;BME280;27468;47.460;19.034;2023-05-20T03:49:43;100844.47;;;15.14;100.00
41800;BME280;27468;47.460;19.034;2023-05-20T03:52:08;100837.03;;;15.25;99.49
41800;BME280;27468;47.460;19.034;2023-05-20T03:54:33;100840.00;;;15.44;99.25
41800;BME280;27468;47.460;19.034;2023-05-20T03:57:00;100835.88;;;15.62;97.82
41800;BME280;27468;47.460;19.034;2023-05-20T03:59:27;100828.97;;;15.82;95.80
41800;BME280;27468;47.460;19.034;2023-05-20T04:01:53;100836.16;;;16.05;93.89
41800;BME280;27468;47.460;19.034;2023-05-20T04:04:18;100857.56;;;16.26;92.80
41800;BME280;27468;47.460;19.034;2023-05-20T04:06:44;100817.25;;;16.13;92.02
41800;BME280;27468;47.460;19.034;2023-05-20T04:09:10;100861.00;;;16.77;91.95
41800;BME280;27468;47.460;19.034;2023-05-20T04:11:36;100863.78;;;16.98;90.03
41800;BME280;27468;47.460;19.034;2023-05-20T04:14:01;100849.19;;;17.08;87.79
41800;BME280;27468;47.460;19.034;2023-05-20T04:16:27;100870.00;;;17.65;87.81
41800;BME280;27468;47.460;19.034;2023-05-20T04:18:53;100876.97;;;18.10;84.08
41800;BME280;27468;47.460;19.034;2023-05-20T04:21:19;100868.91;;;18.32;80.57
41800;BME280;27468;47.460;19.034;2023-05-20T04:23:44;100814.09;;;18.43;80.04
41800;BME280;27468;47.460;19.034;2023-05-20T04:26:10;100861.19;;;19.04;77.44
41800;BME280;27468;47.460;19.034;2023-05-20T04:28:35;100811.28;;;19.22;76.64
41800;BME280;27468;47.460;19.034;2023-05-20T04:31:02;100817.13;;;19.66;72.09
41800;BME280;27468;47.460;19.034;2023-05-20T04:33:31;100853.69;;;20.19;71.96
41800;BME280;27468;47.460;19.034;2023-05-20T04:35:57;100863.81;;;20.29;69.42
41800;BME280;27468;47.460;19.034;2023-05-20T04:38:26;100845.94;;;20.47;69.84
41800;BME280;27468;47.460;19.034;2023-05-20T04:40:58;100862.50;;;20.71;66.58
41800;BME280;27468;47.460;19.034;2023-05-20T04:43:27;100874.41;;;21.14;66.21
41800;BME280;27468;47.460;19.034;2023-05-20T04:45:56;100863.09;;;21.40;63.33
41800;BME280;27468;47.460;19.034;2023-05-20T04:48:22;100871.81;;;21.60;61.88
41800;BME280;27468;47.460;19.034;2023-05-20T04:50:48;100863.25;;;21.69;59.91
41800;BME280;27468;47.460;19.034;2023-05-20T04:53:17;100835.22;;;21.89;60.06
41800;BME280;27468;47.460;19.034;2023-05-20T04:55:44;100865.03;;;22.14;57.61
41800;BME280;27468;47.460;19.034;2023-05-20T04:58:10;100856.38;;;21.79;57.73
41800;BME280;27468;47.460;19.034;2023-05-20T05:00:43;100832.91;;;21.97;58.45
41800;BME280;27468;47.460;19.034;2023-05-20T05:03:09;100846.69;;;22.51;58.04
41800;BME280;27468;47.460;19.034;2023-05-20T05:05:37;100824.50;;;22.76;56.11
41800;BME280;27468;47.460;19.034;2023-05-20T05:08:04;100857.63;;;22.76;55.92
41800;BME280;27468;47.460;19.034;2023-05-20T05:10:30;100843.88;;;22.38;54.57
41800;BME280;27468;47.460;19.034;2023-05-20T05:12:56;100808.91;;;21.50;54.69
41800;BME280;27468;47.460;19.034;2023-05-20T05:15:21;100859.75;;;21.37;56.00
41800;BME280;27468;47.460;19.034;2023-05-20T05:17:47;100845.69;;;21.16;57.63
41800;BME280;27468;47.460;19.034;2023-05-20T05:20:13;100854.22;;;20.75;58.69
41800;BME280;27468;47.460;19.034;2023-05-20T05:22:38;100831.06;;;20.41;58.94
41800;BME280;27468;47.460;19.034;2023-05-20T05:25:06;100840.75;;;19.92;59.76
41800;BME280;27468;47.460;19.034;2023-05-20T05:27:31;100815.09;;;19.71;61.31
41800;BME280;27468;47.460;19.034;2023-05-20T05:29:57;100815.97;;;19.71;60.88
41800;BME280;27468;47.460;19.034;2023-05-20T05:32:22;100818.66;;;19.54;61.09
41800;BME280;27468;47.460;19.034;2023-05-20T05:34:48;100845.94;;;19.61;61.39
41800;BME280;27468;47.460;19.034;2023-05-20T05:37:13;100861.69;;;19.48;61.94
41800;BME280;27468;47.460;19.034;2023-05-20T05:39:39;100833.59;;;19.39;62.79
41800;BME280;27468;47.460;19.034;2023-05-20T05:42:04;100866.00;;;19.52;62.69
41800;BME280;27468;47.460;19.034;2023-05-20T05:44:30;100844.97;;;19.26;62.84
41800;BME280;27468;47.460;19.034;2023-05-20T05:46:56;100872.94;;;19.19;63.87
41800;BME280;27468;47.460;19.034;2023-05-20T05:49:21;100881.22;;;19.31;64.01
41800;BME280;27468;47.460;19.034;2023-05-20T05:51:46;100883.81;;;19.33;64.31
41800;BME280;27468;47.460;19.034;2023-05-20T05:54:12;100839.22;;;18.97;64.66
41800;BME280;27468;47.460;19.034;2023-05-20T05:56:37;100820.59;;;18.96;64.59
41800;BME280;27468;47.460;19.034;2023-05-20T05:59:03;100870.53;;;19.31;64.32
41800;BME280;27468;47.460;19.034;2023-05-20T06:01:29;100882.31;;;19.27;63.65
41800;BME280;27468;47.460;19.034;2023-05-20T06:03:55;100875.44;;;19.22;64.04
41800;BME280;27468;47.460;19.034;2023-05-20T06:06:20;100873.06;;;19.34;64.39
41800;BME280;27468;47.460;19.034;2023-05-20T06:08:46;100871.53;;;19.48;63.73
41800;BME280;27468;47.460;19.034;2023-05-20T06:11:11;100865.84;;;19.36;63.93
41800;BME280;27468;47.460;19.034;2023-05-20T06:13:37;100820.47;;;19.16;63.04
41800;BME280;27468;47.460;19.034;2023-05-20T06:16:02;100818.03;;;19.11;62.32
41800;BME280;27468;47.460;19.034;2023-05-20T06:18:28;100866.09;;;19.49;62.40
41800;BME280;27468;47.460;19.034;2023-05-20T06:20:57;100875.06;;;19.48;60.03
41800;BME280;27468;47.460;19.034;2023-05-20T06:23:22;100870.75;;;19.45;59.70
41800;BME280;27468;47.460;19.034;2023-05-20T06:25:49;100868.94;;;19.46;59.17
41800;BME280;27468;47.460;19.034;2023-05-20T06:28:14;100852.88;;;19.46;59.56
41800;BME280;27468;47.460;19.034;2023-05-20T06:30:40;100820.59;;;19.32;59.45
41800;BME280;27468;47.460;19.034;2023-05-20T06:33:05;100858.53;;;19.59;60.20
41800;BME280;27468;47.460;19.034;2023-05-20T06:35:31;100858.19;;;19.65;59.33
41800;BME280;27468;47.460;19.034;2023-05-20T06:37:59;100866.00;;;19.69;58.93
41800;BME280;27468;47.460;19.034;2023-05-20T06:40:26;100865.28;;;19.66;58.27
41800;BME280;27468;47.460;19.034;2023-05-20T06:42:51;100869.69;;;19.67;59.00
41800;BME280;27468;47.460;19.034;2023-05-20T06:45:17;100846.41;;;19.52;58.27
41800;BME280;27468;47.460;19.034;2023-05-20T06:47:42;100867.88;;;19.67;57.86
41800;BME280;27468;47.460;19.034;2023-05-20T06:50:08;100852.09;;;19.63;57.58
41800;BME280;27468;47.460;19.034;2023-05-20T06:52:34;100813.06;;;19.59;57.81
41800;BME280;27468;47.460;19.034;2023-05-20T06:54:59;100826.03;;;19.66;57.85
41800;BME280;27468;47.460;19.034;2023-05-20T06:57:25;100871.00;;;19.94;57.55
41800;BME280;27468;47.460;19.034;2023-05-20T06:59:50;100857.38;;;19.99;57.15
41800;BME280;27468;47.460;19.034;2023-05-20T07:02:15;100860.06;;;19.99;56.50
41800;BME280;27468;47.460;19.034;2023-05-20T07:04:41;100872.41;;;20.01;57.35
41800;BME280;27468;47.460;19.034;2023-05-20T07:07:06;100856.34;;;20.01;56.51
41800;BME280;27468;47.460;19.034;2023-05-20T07:09:32;100819.28;;;19.76;57.15
41800;BME280;27468;47.460;19.034;2023-05-20T07:11:57;100835.56;;;20.06;57.35
41800;BME280;27468;47.460;19.034;2023-05-20T07:14:22;100859.03;;;20.19;57.21
41800;BME280;27468;47.460;19.034;2023-05-20T07:16:48;100841.84;;;20.23;56.40
41800;BME280;27468;47.460;19.034;2023-05-20T07:19:13;100839.44;;;20.18;55.80
41800;BME280;27468;47.460;19.034;2023-05-20T07:21:39;100833.03;;;20.21;56.32
41800;BME280;27468;47.460;19.034;2023-05-20T07:24:05;100819.97;;;20.15;55.86
41800;BME280;27468;47.460;19.034;2023-05-20T07:26:31;100830.03;;;20.27;55.31
41800;BME280;27468;47.460;19.034;2023-05-20T07:29:00;100816.72;;;20.25;55.81
41800;BME280;27468;47.460;19.034;2023-05-20T07:31:26;100769.59;;;20.05;56.20
41800;BME280;27468;47.460;19.034;2023-05-20T07:33:51;100793.75;;;20.21;54.92
41800;BME280;27468;47.460;19.034;2023-05-20T07:36:16;100802.66;;;20.22;55.51
41800;BME280;27468;47.460;19.034;2023-05-20T07:38:42;100787.19;;;20.27;55.37
41800;BME280;27468;47.460;19.034;2023-05-20T07:41:07;100785.03;;;20.33;55.43
41800;BME280;27468;47.460;19.034;2023-05-20T07:43:33;100788.50;;;20.35;55.25
41800;BME280;27468;47.460;19.034;2023-05-20T07:45:58;100803.53;;;20.55;55.38
41800;BME280;27468;47.460;19.034;2023-05-20T07:48:23;100823.78;;;20.61;54.94
41800;BME280;27468;47.460;19.034;2023-05-20T07:50:49;100844.53;;;20.73;54.48
41800;BME280;27468;47.460;19.034;2023-05-20T07:53:14;100835.63;;;20.72;54.67
41800;BME280;27468;47.460;19.034;2023-05-20T07:55:40;100833.03;;;20.71;54.73
41800;BME280;27468;47.460;19.034;2023-05-20T07:58:05;100774.72;;;20.43;55.08
41800;BME280;27468;47.460;19.034;2023-05-20T08:00:31;100829.66;;;20.83;54.92
41800;BME280;27468;47.460;19.034;2023-05-20T08:02:56;100817.41;;;20.79;54.96
41800;BME280;27468;47.460;19.034;2023-05-20T08:05:22;100810.13;;;20.81;55.35
41800;BME280;27468;47.460;19.034;2023-05-20T08:07:47;100788.78;;;20.80;54.72
41800;BME280;27468;47.460;19.034;2023-05-20T08:10:13;100821.13;;;20.92;54.84
41800;BME280;27468;47.460;19.034;2023-05-20T08:12:38;100825.44;;;21.10;55.59
41800;BME280;27468;47.460;19.034;2023-05-20T08:15:04;100770.22;;;20.76;54.72
41800;BME280;27468;47.460;19.034;2023-05-20T08:17:31;100808.84;;;21.04;54.07
41800;BME280;27468;47.460;19.034;2023-05-20T08:19:57;100824.06;;;21.19;54.23
41800;BME280;27468;47.460;19.034;2023-05-20T08:22:22;100827.47;;;21.23;54.35
41800;BME280;27468;47.460;19.034;2023-05-20T08:24:48;100780.31;;;21.03;53.91
41800;BME280;27468;47.460;19.034;2023-05-20T08:27:13;100795.28;;;21.23;54.08
41800;BME280;27468;47.460;19.034;2023-05-20T08:29:38;100818.44;;;21.39;54.24
41800;BME280;27468;47.460;19.034;2023-05-20T08:32:04;100810.69;;;21.35;53.28
41800;BME280;27468;47.460;19.034;2023-05-20T08:34:30;100804.84;;;21.42;53.38
41800;BME280;27468;47.460;19.034;2023-05-20T08:36:55;100775.81;;;21.35;53.78
41800;BME280;27468;47.460;19.034;2023-05-20T08:39:22;100796.09;;;21.55;53.88
41800;BME280;27468;47.460;19.034;2023-05-20T08:41:47;100767.97;;;21.46;53.39
41800;BME280;27468;47.460;19.034;2023-05-20T08:44:13;100766.94;;;21.49;53.22
41800;BME280;27468;47.460;19.034;2023-05-20T08:46:39;100802.88;;;21.76;53.47
41800;BME280;27468;47.460;19.034;2023-05-20T08:49:06;100798.69;;;21.86;53.68
41800;BME280;27468;47.460;19.034;2023-05-20T08:51:32;100781.91;;;21.83;53.63
41800;BME280;27468;47.460;19.034;2023-05-20T08:54:01;100762.91;;;21.71;52.69
41800;BME280;27468;47.460;19.034;2023-05-20T08:56:26;100786.13;;;22.01;53.23
41800;BME280;27468;47.460;19.034;2023-05-20T08:58:52;100788.06;;;21.99;52.70
41800;BME280;27468;47.460;19.034;2023-05-20T09:01:18;100746.91;;;21.84;53.34
41800;BME280;27468;47.460;19.034;2023-05-20T09:03:46;100785.16;;;22.18;52.72
41800;BME280;27468;47.460;19.034;2023-05-20T09:06:16;100756.16;;;22.08;52.15
41800;BME280;27468;47.460;19.034;2023-05-20T09:08:45;100758.09;;;22.21;52.68
41800;BME280;27468;47.460;19.034;2023-05-20T09:11:12;100776.53;;;22.27;52.07
41800;BME280;27468;47.460;19.034;2023-05-20T09:13:37;100778.56;;;22.37;51.95
41800;BME280;27468;47.460;19.034;2023-05-20T09:16:03;100779.50;;;22.36;50.64
41800;BME280;27468;47.460;19.034;2023-05-20T09:18:28;100783.81;;;22.39;51.24
41800;BME280;27468;47.460;19.034;2023-05-20T09:20:54;100766.75;;;22.40;50.68
41800;BME280;27468;47.460;19.034;2023-05-20T09:23:20;100739.97;;;22.24;49.91
41800;BME280;27468;47.460;19.034;2023-05-20T09:25:51;100776.34;;;22.44;50.67
41800;BME280;27468;47.460;19.034;2023-05-20T09:28:21;100727.41;;;22.25;49.81
41800;BME280;27468;47.460;19.034;2023-05-20T09:30:49;100762.63;;;22.49;49.03
41800;BME280;27468;47.460;19.034;2023-05-20T09:33:16;100758.13;;;22.49;49.53
41800;BME280;27468;47.460;19.034;2023-05-20T09:35:42;100763.16;;;22.54;50.28
41800;BME280;27468;47.460;19.034;2023-05-20T09:38:08;100716.94;;;22.34;48.97
41800;BME280;27468;47.460;19.034;2023-05-20T09:40:34;100751.63;;;22.66;49.82
41800;BME280;27468;47.460;19.034;2023-05-20T09:43:05;100737.91;;;22.70;49.77
41800;BME280;27468;47.460;19.034;2023-05-20T09:45:36;100751.91;;;22.90;49.17
41800;BME280;27468;47.460;19.034;2023-05-20T09:48:03;100735.59;;;22.93;48.75
41800;BME280;27468;47.460;19.034;2023-05-20T09:50:30;100702.56;;;22.77;48.60
41800;BME280;27468;47.460;19.034;2023-05-20T09:53:01;100714.06;;;22.93;48.14
41800;BME280;27468;47.460;19.034;2023-05-20T09:55:26;100723.47;;;23.00;48.74
41800;BME280;27468;47.460;19.034;2023-05-20T09:57:52;100715.75;;;23.08;47.96
41800;BME280;27468;47.460;19.034;2023-05-20T10:00:19;100717.03;;;23.15;47.80
41800;BME280;27468;47.460;19.034;2023-05-20T10:02:49;100649.50;;;22.80;46.43
41800;BME280;27468;47.460;19.034;2023-05-20T10:05:18;100702.72;;;23.15;45.93
41800;BME280;27468;47.460;19.034;2023-05-20T10:13:04;100722.41;;;23.42;43.73
41800;BME280;27468;47.460;19.034;2023-05-20T10:20:49;100712.09;;;23.49;45.16
41800;BME280;27468;47.460;19.034;2023-05-20T10:23:22;100697.56;;;23.51;43.84
41800;BME280;27468;47.460;19.034;2023-05-20T10:25:52;100698.81;;;23.60;44.36
41800;BME280;27468;47.460;19.034;2023-05-20T10:28:29;100695.69;;;23.66;43.62
41800;BME280;27468;47.460;19.034;2023-05-20T10:30:55;100712.78;;;23.78;44.50
41800;BME280;27468;47.460;19.034;2023-05-20T10:33:21;100704.28;;;23.84;44.03
41800;BME280;27468;47.460;19.034;2023-05-20T10:35:49;100681.13;;;23.81;42.65
41800;BME280;27468;47.460;19.034;2023-05-20T10:38:15;100673.81;;;23.83;43.29
41800;BME280;27468;47.460;19.034;2023-05-20T10:40:40;100691.91;;;23.94;43.35
41800;BME280;27468;47.460;19.034;2023-05-20T10:43:12;100637.44;;;23.65;43.09
41800;BME280;27468;47.460;19.034;2023-05-20T10:46:07;100671.22;;;23.94;43.51
41800;BME280;27468;47.460;19.034;2023-05-20T10:48:41;100671.44;;;23.91;42.16
41800;BME280;27468;47.460;19.034;2023-05-20T10:51:13;100668.00;;;24.02;41.85
41800;BME280;27468;47.460;19.034;2023-05-20T10:53:40;100667.03;;;24.03;40.68
41800;BME280;27468;47.460;19.034;2023-05-20T10:56:15;100681.44;;;24.15;41.13
41800;BME280;27468;47.460;19.034;2023-05-20T10:58:41;100629.97;;;23.94;40.15
41800;BME280;27468;47.460;19.034;2023-05-20T11:01:09;100664.22;;;24.17;40.03
41800;BME280;27468;47.460;19.034;2023-05-20T11:03:35;100666.69;;;24.20;41.67
41800;BME280;27468;47.460;19.034;2023-05-20T11:06:01;100658.94;;;24.16;42.26
41800;BME280;27468;47.460;19.034;2023-05-20T11:08:29;100659.03;;;24.27;40.84
41800;BME280;27468;47.460;19.034;2023-05-20T11:10:56;100660.19;;;24.35;40.33
41800;BME280;27468;47.460;19.034;2023-05-20T11:13:22;100618.84;;;24.11;39.82
41800;BME280;27468;47.460;19.034;2023-05-20T11:15:48;100655.22;;;24.42;39.92
41800;BME280;27468;47.460;19.034;2023-05-20T11:18:14;100666.53;;;24.47;39.59
41800;BME280;27468;47.460;19.034;2023-05-20T11:20:39;100651.31;;;24.46;39.42
41800;BME280;27468;47.460;19.034;2023-05-20T11:23:06;100641.28;;;24.48;40.32
41800;BME280;27468;47.460;19.034;2023-05-20T11:25:35;100614.78;;;24.42;40.64
41800;BME280;27468;47.460;19.034;2023-05-20T11:28:01;100595.09;;;24.29;41.17
41800;BME280;27468;47.460;19.034;2023-05-20T11:30:26;100616.31;;;24.33;41.20
41800;BME280;27468;47.460;19.034;2023-05-20T11:33:02;100609.09;;;24.34;38.73
41800;BME280;27468;47.460;19.034;2023-05-20T11:35:30;100656.56;;;24.60;37.60
41800;BME280;27468;47.460;19.034;2023-05-20T11:38:02;100616.84;;;24.39;38.36
41800;BME280;27468;47.460;19.034;2023-05-20T11:40:29;100656.47;;;24.62;38.71
41800;BME280;27468;47.460;19.034;2023-05-20T11:42:56;100642.63;;;24.66;35.27
41800;BME280;27468;47.460;19.034;2023-05-20T11:45:23;100654.28;;;24.67;37.48
41800;BME280;27468;47.460;19.034;2023-05-20T11:47:59;100652.75;;;24.76;38.56
41800;BME280;27468;47.460;19.034;2023-05-20T11:50:25;100647.81;;;24.69;39.78
41800;BME280;27468;47.460;19.034;2023-05-20T11:52:57;100603.91;;;24.44;41.64
41800;BME280;27468;47.460;19.034;2023-05-20T11:55:24;100604.41;;;24.49;43.27
41800;BME280;27468;47.460;19.034;2023-05-20T11:57:50;100643.19;;;24.59;43.36
41800;BME280;27468;47.460;19.034;2023-05-20T12:00:16;100651.03;;;24.75;37.69
41800;BME280;27468;47.460;19.034;2023-05-20T12:02:42;100627.84;;;24.72;36.90
41800;BME280;27468;47.460;19.034;2023-05-20T12:05:07;100582.00;;;24.48;41.05
41800;BME280;27468;47.460;19.034;2023-05-20T12:07:33;100644.56;;;24.88;37.64
41800;BME280;27468;47.460;19.034;2023-05-20T12:09:58;100586.19;;;24.52;35.86
41800;BME280;27468;47.460;19.034;2023-05-20T12:12:24;100618.78;;;24.73;37.42
41800;BME280;27468;47.460;19.034;2023-05-20T12:14:49;100646.81;;;24.94;37.36
41800;BME280;27468;47.460;19.034;2023-05-20T12:17:15;100636.59;;;24.87;37.83
41800;BME280;27468;47.460;19.034;2023-05-20T12:19:40;100605.63;;;24.68;38.80
41800;BME280;27468;47.460;19.034;2023-05-20T12:22:06;100620.91;;;24.81;37.79
41800;BME280;27468;47.460;19.034;2023-05-20T12:24:31;100622.34;;;24.85;38.31
41800;BME280;27468;47.460;19.034;2023-05-20T12:26:57;100611.31;;;24.77;38.53
41800;BME280;27468;47.460;19.034;2023-05-20T12:29:22;100602.88;;;24.81;36.45
41800;BME280;27468;47.460;19.034;2023-05-20T12:31:47;100611.00;;;24.92;37.41
41800;BME280;27468;47.460;19.034;2023-05-20T12:34:13;100581.78;;;24.75;39.20
41800;BME280;27468;47.460;19.034;2023-05-20T12:36:38;100589.22;;;24.72;38.25
41800;BME280;27468;47.460;19.034;2023-05-20T12:39:04;100586.06;;;24.78;40.14
41800;BME280;27468;47.460;19.034;2023-05-20T12:41:30;100592.31;;;24.78;38.90
41800;BME280;27468;47.460;19.034;2023-05-20T12:43:55;100623.59;;;25.05;39.00